createdAt,value
2023-03-22T00:01:14.129Z,17.50
2023-03-22T00:03:43.476Z,16.05
2023-03-22T00:06:12.401Z,16.73
2023-03-22T00:08:41.425Z,15.57
2023-03-22T00:11:09.951Z,17.30
2023-03-22T00:13:38.460Z,18.43
2023-03-22T00:16:07.425Z,17.07
2023-03-22T00:18:36.164Z,16.52
2023-03-22T00:21:05.492Z,15.83
2023-03-22T00:23:33.932Z,17.03
2023-03-22T00:26:02.724Z,15.68
2023-03-22T00:28:31.352Z,16.70
2023-03-22T00:31:00.755Z,17.20
2023-03-22T00:33:30.401Z,14.97
2023-03-22T00:36:00.442Z,16.27
2023-03-22T00:38:41.643Z,15.23
2023-03-22T00:41:02.909Z,15.77
2023-03-22T00:43:31.493Z,15.47
2023-03-22T00:45:59.986Z,16.20
2023-03-22T00:48:28.484Z,14.40
2023-03-22T00:50:56.960Z,15.33
2023-03-22T00:53:25.953Z,15.17
2023-03-22T00:55:54.411Z,16.20
2023-03-22T00:58:23.013Z,14.80
2023-03-22T01:00:52.066Z,15.98
2023-03-22T01:03:21.884Z,14.97
2023-03-22T01:05:52.327Z,14.93
2023-03-22T01:08:21.080Z,15.08
2023-03-22T01:10:50.291Z,14.00
2023-03-22T01:13:18.718Z,13.90
2023-03-22T01:15:48.877Z,14.77
2023-03-22T01:18:18.126Z,13.80
2023-03-22T01:20:46.667Z,14.73
2023-03-22T01:23:15.308Z,13.87
2023-03-22T01:25:43.755Z,14.47
2023-03-22T01:28:12.304Z,14.20
2023-03-22T01:30:41.723Z,14.38
2023-03-22T01:33:10.409Z,14.13
2023-03-22T01:35:39.801Z,15.17
2023-03-22T01:38:08.637Z,14.07
2023-03-22T01:40:39.114Z,13.03
2023-03-22T01:43:09.416Z,12.93
2023-03-22T01:45:39.901Z,14.15
2023-03-22T01:48:28.295Z,14.27
2023-03-22T01:51:03.094Z,13.67
2023-03-22T01:53:37.932Z,13.30
2023-03-22T01:56:07.328Z,14.53
2023-03-22T01:58:37.496Z,14.03
2023-03-22T02:01:08.651Z,12.45
2023-03-22T02:03:52.334Z,13.57
2023-03-22T02:06:21.649Z,15.67
2023-03-22T02:08:52.852Z,13.98
2023-03-22T02:11:22.929Z,12.47
2023-03-22T02:13:53.996Z,14.63
2023-03-22T02:16:37.392Z,14.17
2023-03-22T02:19:15.134Z,13.30
2023-03-22T02:22:01.918Z,14.03
2023-03-22T02:24:32.784Z,12.90
2023-03-22T02:27:09.002Z,13.17
2023-03-22T02:29:41.907Z,14.30
2023-03-22T02:32:11.872Z,13.43
2023-03-22T02:34:51.518Z,13.23
2023-03-22T02:37:24.447Z,13.90
2023-03-22T02:39:58.053Z,12.98
2023-03-22T02:42:33.935Z,12.73
2023-03-22T02:45:04.355Z,13.62
2023-03-22T02:47:38.360Z,13.77
2023-03-22T02:50:11.954Z,15.27
2023-03-22T02:52:46.218Z,12.47
2023-03-22T02:55:19.347Z,13.37
2023-03-22T02:57:49.702Z,13.85
2023-03-22T03:00:18.584Z,13.83
2023-03-22T03:02:49.138Z,12.50
2023-03-22T03:05:18.684Z,13.90
2023-03-22T03:07:51.404Z,14.60
2023-03-22T03:10:21.404Z,12.07
2023-03-22T03:12:49.990Z,12.47
2023-03-22T03:15:20.201Z,13.13
2023-03-22T03:18:06.680Z,11.90
2023-03-22T03:20:41.543Z,11.43
2023-03-22T03:23:13.356Z,13.67
2023-03-22T03:28:15.017Z,12.30
2023-03-22T03:30:48.208Z,12.47
2023-03-22T03:33:18.197Z,12.30
2023-03-22T03:35:54.505Z,13.03
2023-03-22T03:38:24.563Z,13.17
2023-03-22T03:40:58.056Z,12.50
2023-03-22T03:43:26.984Z,12.30
2023-03-22T03:45:55.879Z,11.97
2023-03-22T03:48:26.129Z,12.97
2023-03-22T03:50:54.902Z,10.37
2023-03-22T03:53:23.482Z,13.30
2023-03-22T03:55:51.940Z,11.33
2023-03-22T03:58:20.636Z,12.33
2023-03-22T04:00:49.732Z,12.33
2023-03-22T04:03:22.926Z,12.97
2023-03-22T04:06:02.224Z,11.10
2023-03-22T04:08:31.356Z,12.00
2023-03-22T04:11:00.129Z,14.10
2023-03-22T04:13:29.758Z,13.50
2023-03-22T04:16:01.448Z,12.47
2023-03-22T04:18:32.141Z,12.27
2023-03-22T04:21:03.363Z,13.28
2023-03-22T04:23:33.702Z,12.82
2023-03-22T04:26:02.897Z,12.33
2023-03-22T04:28:33.428Z,13.47
2023-03-22T04:31:03.993Z,13.27
2023-03-22T04:33:47.343Z,13.13
2023-03-22T04:36:20.207Z,12.47
2023-03-22T04:38:59.438Z,13.13
2023-03-22T04:41:29.481Z,13.90
2023-03-22T04:43:59.880Z,16.20
2023-03-22T04:46:28.965Z,14.35
2023-03-22T04:48:59.878Z,16.42
2023-03-22T04:51:30.232Z,13.95
2023-03-22T04:54:06.144Z,14.93
2023-03-22T04:56:35.622Z,16.40
2023-03-22T04:59:04.127Z,15.60
2023-03-22T05:01:33.293Z,15.38
2023-03-22T05:04:03.332Z,14.47
2023-03-22T05:06:34.855Z,15.20
2023-03-22T05:09:05.150Z,14.47
2023-03-22T05:11:33.865Z,14.77
2023-03-22T05:14:07.099Z,15.00
2023-03-22T05:16:36.784Z,14.47
2023-03-22T05:19:06.769Z,14.47
2023-03-22T05:21:36.805Z,12.80
2023-03-22T05:24:05.939Z,12.60
2023-03-22T05:26:36.438Z,13.90
2023-03-22T05:29:05.669Z,13.72
2023-03-22T05:31:44.702Z,13.10
2023-03-22T05:34:13.542Z,13.73
2023-03-22T05:36:42.659Z,14.13
2023-03-22T05:39:19.051Z,14.60
2023-03-22T05:41:47.536Z,15.47
2023-03-22T05:44:16.397Z,13.83
2023-03-22T05:46:52.617Z,14.75
2023-03-22T05:49:22.791Z,15.30
2023-03-22T05:51:51.367Z,16.50
2023-03-22T05:54:20.704Z,16.07
2023-03-22T05:56:53.133Z,18.17
2023-03-22T06:01:49.744Z,16.65
2023-03-22T06:04:22.700Z,18.23
2023-03-22T06:06:56.289Z,19.05
2023-03-22T06:09:26.953Z,17.67
2023-03-22T06:11:55.586Z,17.67
2023-03-22T06:14:24.296Z,15.87
2023-03-22T06:17:03.397Z,15.63
2023-03-22T06:19:32.241Z,15.53
2023-03-22T06:22:02.374Z,16.57
2023-03-22T06:24:32.539Z,16.43
2023-03-22T06:27:01.254Z,15.23
2023-03-22T06:29:29.983Z,16.07
2023-03-22T06:32:00.548Z,16.02
2023-03-22T06:34:29.712Z,14.90
2023-03-22T06:36:59.027Z,14.60
2023-03-22T06:39:34.772Z,15.10
2023-03-22T06:42:04.014Z,13.47
2023-03-22T06:44:32.688Z,14.97
2023-03-22T06:47:11.894Z,13.17
2023-03-22T06:49:45.075Z,13.87
2023-03-22T06:52:15.182Z,14.10
2023-03-22T06:54:44.109Z,13.18
2023-03-22T06:57:12.968Z,12.18
2023-03-22T06:59:41.827Z,12.60
2023-03-22T07:02:11.546Z,13.67
2023-03-22T07:04:41.246Z,12.40
2023-03-22T07:07:09.988Z,11.73
2023-03-22T07:09:39.786Z,12.67
2023-03-22T07:12:08.281Z,11.37
2023-03-22T07:14:37.006Z,14.07
2023-03-22T07:17:07.238Z,12.50
2023-03-22T07:19:35.876Z,12.40
2023-03-22T07:22:05.762Z,12.77
2023-03-22T07:24:37.204Z,12.80
2023-03-22T07:27:05.335Z,13.33
2023-03-22T07:29:34.441Z,13.53
2023-03-22T07:32:03.178Z,13.33
2023-03-22T07:34:33.089Z,13.80
2023-03-22T07:37:03.310Z,13.37
2023-03-22T07:39:32.167Z,15.28
2023-03-22T07:42:01.006Z,13.83
2023-03-22T07:44:42.947Z,15.30
2023-03-22T07:47:30.874Z,14.47
2023-03-22T07:49:59.401Z,13.47
2023-03-22T07:52:29.718Z,15.27
2023-03-22T07:54:58.859Z,13.73
2023-03-22T07:57:27.329Z,12.60
2023-03-22T07:59:57.479Z,11.33
2023-03-22T08:02:27.804Z,10.83
2023-03-22T08:04:56.863Z,10.90
2023-03-22T08:07:32.217Z,10.33
2023-03-22T08:10:00.936Z,10.23
2023-03-22T08:12:29.493Z,10.20
2023-03-22T08:14:59.754Z,8.77
2023-03-22T08:17:30.232Z,10.03
2023-03-22T08:19:58.780Z,8.93
2023-03-22T08:22:32.651Z,8.23
2023-03-22T08:25:18.935Z,9.90
2023-03-22T08:27:48.484Z,8.97
2023-03-22T08:30:17.344Z,8.17
2023-03-22T08:32:46.138Z,9.23
2023-03-22T08:35:14.409Z,8.97
2023-03-22T08:37:42.964Z,8.87
2023-03-22T08:40:11.944Z,8.70
2023-03-22T08:42:42.187Z,8.48
2023-03-22T08:45:11.140Z,7.93
2023-03-22T08:47:41.578Z,8.93
2023-03-22T08:50:11.539Z,8.30
2023-03-22T08:52:47.396Z,7.83
2023-03-22T08:55:29.952Z,8.23
2023-03-22T08:58:12.752Z,6.87
2023-03-22T09:00:58.239Z,6.20
2023-03-22T09:03:28.414Z,5.80
2023-03-22T09:05:57.404Z,6.05
2023-03-22T09:08:28.634Z,4.90
2023-03-22T09:10:59.332Z,4.40
2023-03-22T09:13:29.667Z,4.43
2023-03-22T09:15:59.870Z,5.03
2023-03-22T09:18:30.111Z,4.67
2023-03-22T09:21:00.255Z,4.27
2023-03-22T09:23:31.981Z,5.03
2023-03-22T09:26:01.490Z,4.93
2023-03-22T09:28:30.907Z,4.37
2023-03-22T09:31:02.084Z,4.37
2023-03-22T09:33:31.336Z,4.25
2023-03-22T09:36:00.124Z,4.30
2023-03-22T09:38:30.893Z,4.23
2023-03-22T09:41:02.089Z,4.57
2023-03-22T09:43:36.925Z,5.30
2023-03-22T09:46:07.232Z,3.97
2023-03-22T09:48:37.165Z,4.90
2023-03-22T09:51:07.663Z,4.53
2023-03-22T09:53:35.926Z,4.57
2023-03-22T09:56:09.300Z,4.87
2023-03-22T09:58:39.738Z,4.45
2023-03-22T10:01:20.854Z,4.33
2023-03-22T10:03:55.562Z,4.47
2023-03-22T10:06:24.856Z,4.53
2023-03-22T10:09:13.859Z,5.00
2023-03-22T10:11:47.031Z,4.70
2023-03-22T10:14:31.790Z,4.53
2023-03-22T10:17:03.593Z,4.35
2023-03-22T10:22:01.361Z,4.50
2023-03-22T10:24:31.588Z,4.20
2023-03-22T10:27:00.094Z,3.53
2023-03-22T10:29:33.118Z,3.67
2023-03-22T10:32:09.006Z,4.83
2023-03-22T10:34:37.476Z,4.20
2023-03-22T10:37:06.478Z,3.90
2023-03-22T10:39:40.128Z,3.77
2023-03-22T10:42:16.500Z,3.83
2023-03-22T10:44:49.719Z,4.28
2023-03-22T10:47:19.765Z,3.77
2023-03-22T10:49:51.525Z,5.57
2023-03-22T10:52:33.675Z,4.47
2023-03-22T10:55:04.570Z,5.10
2023-03-22T10:57:32.893Z,4.78
2023-03-22T11:00:01.437Z,4.83
2023-03-22T11:02:31.903Z,4.47
2023-03-22T11:05:01.875Z,4.90
2023-03-22T11:07:31.893Z,4.07
2023-03-22T11:10:10.880Z,5.50
2023-03-22T11:12:43.598Z,4.40
2023-03-22T11:15:13.584Z,4.50
2023-03-22T11:17:43.322Z,4.73
2023-03-22T11:20:13.453Z,4.50
2023-03-22T11:22:43.251Z,4.03
2023-03-22T11:25:16.540Z,5.40
2023-03-22T11:27:46.717Z,4.73
2023-03-22T11:30:22.594Z,5.00
2023-03-22T11:32:52.633Z,5.07
2023-03-22T11:35:28.584Z,5.03
2023-03-22T11:37:57.117Z,5.63
2023-03-22T11:40:36.542Z,5.33
2023-03-22T11:43:12.876Z,5.10
2023-03-22T11:45:43.259Z,5.37
2023-03-22T11:48:16.178Z,5.00
2023-03-22T11:50:45.835Z,5.30
2023-03-22T11:53:16.581Z,4.97
2023-03-22T11:55:46.175Z,5.87
2023-03-22T11:58:31.580Z,5.60
2023-03-22T12:01:01.507Z,5.40
2023-03-22T12:03:31.923Z,6.23
2023-03-22T12:06:01.914Z,5.13
2023-03-22T12:08:44.092Z,6.07
2023-03-22T12:11:14.055Z,4.70
2023-03-22T12:13:53.382Z,4.53
2023-03-22T12:16:24.883Z,5.50
2023-03-22T12:19:04.009Z,4.67
2023-03-22T12:21:33.840Z,5.60
2023-03-22T12:24:03.349Z,4.47
2023-03-22T12:26:33.531Z,5.17
2023-03-22T12:29:09.769Z,4.37
2023-03-22T12:31:40.081Z,4.20
2023-03-22T12:34:09.934Z,3.90
2023-03-22T12:36:39.935Z,3.47
2023-03-22T12:39:08.926Z,3.67
2023-03-22T12:41:41.740Z,3.83
2023-03-22T12:44:20.714Z,3.73
2023-03-22T12:46:53.749Z,3.40
2023-03-22T12:49:29.403Z,3.50
2023-03-22T12:51:59.559Z,2.70
2023-03-22T12:54:30.710Z,2.30
2023-03-22T12:59:27.905Z,2.90
2023-03-22T13:02:00.759Z,2.57
2023-03-22T13:04:41.494Z,1.73
2023-03-22T13:07:17.463Z,2.80
2023-03-22T13:09:47.523Z,2.37
2023-03-22T13:12:19.887Z,2.10
2023-03-22T13:14:52.968Z,2.20
2023-03-22T13:17:26.124Z,2.20
2023-03-22T13:19:55.653Z,2.40
2023-03-22T13:22:41.751Z,2.00
2023-03-22T13:25:15.962Z,2.70
2023-03-22T13:27:55.086Z,2.57
2023-03-22T13:30:27.738Z,2.07
2023-03-22T13:33:08.073Z,2.80
2023-03-22T13:35:50.994Z,2.70
2023-03-22T13:38:24.070Z,1.83
2023-03-22T13:41:06.459Z,2.70
2023-03-22T13:43:39.289Z,2.30
2023-03-22T13:46:09.136Z,2.83
2023-03-22T13:48:53.965Z,2.30
2023-03-22T13:51:25.785Z,2.50
2023-03-22T13:53:55.975Z,3.00
2023-03-22T13:56:44.865Z,3.03
2023-03-22T13:59:14.778Z,2.63
2023-03-22T14:01:50.474Z,2.27
2023-03-22T14:04:22.175Z,2.33
2023-03-22T14:06:52.204Z,2.43
2023-03-22T14:09:22.326Z,2.57
2023-03-22T14:11:52.041Z,3.00
2023-03-22T14:14:21.903Z,2.53
2023-03-22T14:16:51.182Z,2.23
2023-03-22T14:19:24.073Z,2.80
